Portada
METAR-TAF:

METAR-TAF

Aeroports :

Navoiy, Uzbekistan

latitud: 40-07-04N, longitud: 065-10-30E, altitud: 348 m

Observació

L'informe es va fer fa 31 minuts, a les 08:00 UTC
Vent 8 kt del Est/Nord-Est
Temperatura 14°C
Humitat 31%
Pressió 1025 hPa
Visibilitat 10 km o més

METAR: UTSA 120800Z 06008KT 9999 NSC 14/M03 Q1025 R07/CLRD70 NOSIG

Hora: 13:31 (08:31 UTC)

Pronòstic

L'informe es va fer fa 3 hores i 30 minuts, a les 05:01 UTC
Pronòstic vàlid del 12 a les 06 UTC al 13 a les 06 UTC
Vent 3 kt amb direcció variable
Visibilitat: 7000 m
Temporalment
l' 12 a les 06 UTC al 12 a les 15 UTC
Vent 10 kt del Nord/Nord-Est
Temporalment
l' 12 a les 15 UTC al 12 a les 23 UTC
Vent 8 kt del Est
Visibilitat: 3000 m
boirina, fum

TAF: UTSA 120501Z 1206/1306 VRB03KT 7000 NSC TEMPO 1206/1215 02010KT TEMPO 1215/1223 08008KT 3000 BR FU

Observacions i pronòstics meteorològics de més de 4000 aeroports (METAR i TAF).

Les estacions disponibles són els punts grocs i vermells al mapa.

Posi el ratolí al punt desitjat per veure el nom de l'estació.

Feu clic per veure les observacions i els pronòstics meteorològics.

Per canviar el mapa: feu clic els botons verds amb una creu de color negre per apropar; al botó verd amb un guió per allunyar la imatge; o en les fletxes verdes per a mapes adjacents.


METAR-TAF: